createdAt,value
2023-05-15T00:04:19.422Z,6.22
2023-05-15T00:09:13.094Z,5.55
2023-05-15T00:14:06.931Z,4.85
2023-05-15T00:19:00.939Z,5.35
2023-05-15T00:23:54.751Z,5.47
2023-05-15T00:28:47.260Z,5.18
2023-05-15T00:33:40.196Z,5.63
2023-05-15T00:38:33.776Z,4.85
2023-05-15T00:43:28.174Z,5.22
2023-05-15T00:48:23.397Z,5.28
2023-05-15T00:53:16.561Z,5.13
2023-05-15T00:58:11.675Z,5.45
2023-05-15T01:03:06.881Z,4.57
2023-05-15T01:08:45.312Z,3.55
2023-05-15T01:13:38.681Z,3.90
2023-05-15T01:18:34.708Z,3.95
2023-05-15T01:23:45.869Z,3.78
2023-05-15T01:28:42.315Z,3.70
2023-05-15T01:33:36.463Z,2.97
2023-05-15T01:39:05.198Z,2.55
2023-05-15T01:44:03.795Z,2.95
2023-05-15T01:49:01.749Z,2.40
2023-05-15T01:53:57.004Z,2.67
2023-05-15T01:58:50.963Z,2.30
2023-05-15T02:03:44.476Z,2.58
2023-05-15T02:08:37.728Z,3.35
2023-05-15T02:13:32.091Z,3.60
2023-05-15T02:18:38.627Z,3.28
2023-05-15T02:23:33.020Z,2.60
2023-05-15T02:28:32.043Z,2.40
2023-05-15T02:33:36.641Z,2.20
2023-05-15T02:38:32.214Z,2.20
2023-05-15T02:43:25.840Z,2.45
2023-05-15T02:48:19.933Z,2.17
2023-05-15T02:53:14.569Z,2.17
2023-05-15T02:58:07.640Z,3.35
2023-05-15T03:03:01.819Z,3.33
2023-05-15T03:07:57.769Z,2.30
2023-05-15T03:12:50.635Z,2.03
2023-05-15T03:17:43.640Z,2.00
2023-05-15T03:22:37.112Z,1.75
2023-05-15T03:27:30.520Z,2.28
2023-05-15T03:32:23.399Z,2.17
2023-05-15T03:37:16.859Z,2.22
2023-05-15T03:42:09.740Z,5.22
2023-05-15T03:47:03.068Z,2.65
2023-05-15T03:51:57.606Z,2.15
2023-05-15T03:56:51.240Z,2.17
2023-05-15T04:01:59.350Z,3.17
2023-05-15T04:06:56.786Z,2.00
2023-05-15T04:11:50.580Z,1.90
2023-05-15T04:16:43.243Z,2.25
2023-05-15T04:21:37.400Z,2.10
2023-05-15T04:26:30.438Z,2.58
2023-05-15T04:31:25.075Z,2.00
2023-05-15T04:36:18.923Z,2.40
2023-05-15T04:41:12.626Z,2.50
2023-05-15T04:46:06.487Z,2.53
2023-05-15T04:50:59.827Z,1.70
2023-05-15T04:55:54.227Z,1.80
2023-05-15T05:00:48.211Z,2.05
2023-05-15T05:05:40.636Z,3.10
2023-05-15T05:10:33.425Z,2.33
2023-05-15T05:15:28.070Z,1.92
2023-05-15T05:20:21.637Z,2.67
2023-05-15T05:25:15.378Z,3.50
2023-05-15T05:30:10.912Z,2.95
2023-05-15T05:35:04.139Z,3.70
2023-05-15T05:39:57.499Z,2.67
2023-05-15T05:44:51.156Z,3.00
2023-05-15T05:49:48.553Z,2.60
2023-05-15T05:54:43.243Z,2.90
2023-05-15T05:59:36.651Z,3.60
2023-05-15T06:04:34.773Z,4.05
2023-05-15T06:09:28.712Z,4.13
2023-05-15T06:14:23.876Z,4.40
2023-05-15T06:19:17.880Z,3.33
2023-05-15T06:24:11.500Z,3.30
2023-05-15T06:29:09.023Z,4.05
2023-05-15T06:34:02.833Z,4.15
2023-05-15T06:38:56.549Z,5.45
2023-05-15T06:43:50.687Z,3.65
2023-05-15T06:48:44.379Z,3.67
2023-05-15T06:53:38.256Z,3.22
2023-05-15T06:58:31.496Z,2.95
2023-05-15T07:03:25.470Z,2.40
2023-05-15T07:08:20.116Z,2.10
2023-05-15T07:13:13.321Z,2.45
2023-05-15T07:18:07.765Z,2.78
2023-05-15T07:23:01.288Z,2.70
2023-05-15T07:27:55.277Z,3.08
2023-05-15T07:32:49.646Z,2.78
2023-05-15T07:37:42.792Z,3.63
2023-05-15T07:42:36.287Z,3.13
2023-05-15T07:47:29.355Z,3.17
2023-05-15T07:52:24.146Z,3.10
2023-05-15T07:57:17.974Z,3.33
2023-05-15T08:02:13.830Z,2.70
2023-05-15T08:07:09.446Z,2.15
2023-05-15T08:12:23.104Z,2.10
2023-05-15T08:17:17.073Z,2.90
2023-05-15T08:22:10.202Z,2.00
2023-05-15T08:27:03.861Z,2.10
2023-05-15T08:31:57.336Z,1.90
2023-05-15T08:36:50.534Z,2.08
2023-05-15T08:41:55.047Z,2.65
2023-05-15T08:46:49.805Z,1.65
2023-05-15T08:51:48.673Z,1.80
2023-05-15T08:56:43.340Z,1.67
2023-05-15T09:01:37.032Z,2.22
2023-05-15T09:06:33.391Z,2.05
2023-05-15T09:11:28.386Z,1.90
2023-05-15T09:16:22.953Z,1.48
2023-05-15T09:21:29.438Z,1.60
2023-05-15T09:26:22.429Z,1.20
2023-05-15T09:31:20.109Z,1.00
2023-05-15T09:41:07.846Z,1.20
2023-05-15T09:46:01.284Z,0.75
2023-05-15T09:50:55.537Z,0.80
2023-05-15T09:55:49.888Z,0.70
2023-05-15T10:00:48.801Z,0.55
2023-05-15T10:05:44.352Z,0.80
2023-05-15T10:10:38.285Z,0.70
2023-05-15T10:15:31.321Z,1.05
2023-05-15T10:20:25.601Z,1.25
2023-05-15T10:25:40.319Z,1.00
2023-05-15T10:30:33.460Z,0.90
2023-05-15T10:35:26.720Z,0.73
2023-05-15T10:40:20.381Z,1.10
2023-05-15T10:45:14.297Z,1.33
2023-05-15T10:50:09.643Z,1.02
2023-05-15T10:55:09.203Z,1.38
2023-05-15T11:00:02.873Z,1.02
2023-05-15T11:05:00.872Z,1.23
2023-05-15T11:09:54.481Z,0.82
2023-05-15T11:14:52.294Z,1.05
2023-05-15T11:19:51.465Z,1.10
2023-05-15T11:24:59.222Z,0.98
2023-05-15T11:30:34.601Z,1.17
2023-05-15T11:35:35.867Z,1.00
2023-05-15T11:40:49.738Z,1.08
2023-05-15T11:45:43.431Z,1.17
2023-05-15T11:50:37.552Z,0.88
2023-05-15T11:55:32.486Z,1.20
2023-05-15T12:00:25.720Z,0.70
2023-05-15T12:05:19.303Z,0.77
2023-05-15T12:10:13.108Z,0.90
2023-05-15T12:15:07.425Z,0.88
2023-05-15T12:20:02.718Z,1.08
2023-05-15T12:24:59.832Z,0.77
2023-05-15T12:29:53.545Z,1.20
2023-05-15T12:34:47.436Z,1.08
2023-05-15T12:39:56.725Z,0.82
2023-05-15T12:44:55.125Z,1.15
2023-05-15T12:49:48.678Z,0.90
2023-05-15T12:54:42.799Z,1.38
2023-05-15T12:59:37.630Z,1.67
2023-05-15T13:04:34.753Z,1.50
2023-05-15T13:09:28.215Z,1.20
2023-05-15T13:14:23.138Z,1.17
2023-05-15T13:19:17.375Z,1.60
2023-05-15T13:24:11.252Z,1.45
2023-05-15T13:29:04.061Z,1.30
2023-05-15T13:33:57.167Z,1.48
2023-05-15T13:38:51.034Z,2.03
2023-05-15T13:43:43.813Z,1.13
2023-05-15T13:48:37.815Z,1.08
2023-05-15T13:53:30.932Z,1.00
2023-05-15T13:58:26.993Z,1.10
2023-05-15T14:03:21.320Z,1.08
2023-05-15T14:08:13.674Z,1.17
2023-05-15T14:13:06.907Z,0.95
2023-05-15T14:18:00.596Z,1.13
2023-05-15T14:22:53.770Z,1.17
2023-05-15T14:27:48.094Z,1.05
2023-05-15T14:32:41.998Z,1.02
2023-05-15T14:37:36.769Z,0.90
2023-05-15T14:42:30.073Z,1.13
2023-05-15T14:47:23.611Z,0.60
2023-05-15T14:52:17.649Z,0.75
2023-05-15T14:57:11.601Z,0.70
2023-05-15T15:02:04.886Z,0.95
2023-05-15T15:06:57.900Z,0.80
2023-05-15T15:11:52.171Z,0.70
2023-05-15T15:16:46.911Z,0.65
2023-05-15T15:21:39.465Z,0.88
2023-05-15T15:26:33.488Z,0.47
2023-05-15T15:31:28.132Z,0.50
2023-05-15T15:36:21.346Z,0.70
2023-05-15T15:41:14.456Z,0.60
2023-05-15T15:46:08.305Z,0.55
2023-05-15T15:51:05.804Z,0.55
2023-05-15T15:55:58.920Z,0.70
2023-05-15T16:00:52.483Z,0.70
2023-05-15T16:05:45.773Z,0.60
2023-05-15T16:10:38.969Z,0.60
2023-05-15T16:15:32.086Z,0.60
2023-05-15T16:20:25.562Z,0.80
2023-05-15T16:25:20.046Z,0.85
2023-05-15T16:30:16.108Z,0.80
2023-05-15T16:35:10.699Z,0.60
2023-05-15T16:40:05.307Z,0.80
2023-05-15T16:44:58.801Z,0.70
2023-05-15T16:49:51.531Z,0.70
2023-05-15T16:54:44.680Z,0.93
2023-05-15T16:59:38.611Z,0.65
2023-05-15T17:04:35.636Z,0.65
2023-05-15T17:09:28.733Z,0.83
2023-05-15T17:14:23.673Z,1.02
2023-05-15T17:19:17.709Z,1.10
2023-05-15T17:24:11.029Z,0.95
2023-05-15T17:29:04.376Z,1.13
2023-05-15T17:33:57.194Z,0.85
2023-05-15T17:38:50.868Z,1.20
2023-05-15T17:43:44.576Z,1.23
2023-05-15T17:48:38.838Z,1.27
2023-05-15T17:53:33.029Z,1.35
2023-05-15T17:58:27.392Z,1.00
2023-05-15T18:03:21.541Z,1.02
2023-05-15T18:08:15.181Z,1.00
2023-05-15T18:13:08.944Z,1.23
2023-05-15T18:18:03.117Z,1.40
2023-05-15T18:22:57.420Z,1.27
2023-05-15T18:27:50.402Z,1.33
2023-05-15T18:32:43.669Z,1.52
2023-05-15T18:37:37.172Z,1.30
2023-05-15T18:42:30.162Z,1.17
2023-05-15T18:47:23.263Z,1.40
2023-05-15T18:52:16.306Z,1.40
2023-05-15T18:57:09.919Z,1.98
2023-05-15T19:02:02.686Z,1.40
2023-05-15T19:06:56.355Z,1.67
2023-05-15T19:11:54.193Z,1.85
2023-05-15T19:16:47.615Z,2.92
2023-05-15T19:21:40.422Z,1.75
2023-05-15T19:26:34.705Z,2.40
2023-05-15T19:31:32.028Z,2.83
2023-05-15T19:36:25.209Z,2.92
2023-05-15T19:41:19.163Z,3.17
2023-05-15T19:46:34.391Z,2.70
2023-05-15T19:51:27.255Z,2.60
2023-05-15T19:56:24.972Z,2.63
2023-05-15T20:01:18.847Z,2.70
2023-05-15T20:06:15.058Z,3.10
2023-05-15T20:11:08.225Z,2.60
2023-05-15T20:16:04.436Z,2.55
2023-05-15T20:20:57.226Z,2.47
2023-05-15T20:25:50.534Z,2.70
2023-05-15T20:30:43.640Z,3.13
2023-05-15T20:35:38.623Z,3.92
2023-05-15T20:40:32.616Z,5.50
2023-05-15T20:45:26.429Z,3.13
2023-05-15T20:50:19.697Z,2.80
2023-05-15T20:55:19.931Z,2.80
2023-05-15T21:00:15.856Z,3.53
2023-05-15T21:05:09.850Z,3.60
2023-05-15T21:10:03.493Z,3.05
2023-05-15T21:14:57.517Z,3.42
2023-05-15T21:19:51.540Z,3.30
2023-05-15T21:24:45.437Z,2.85
2023-05-15T21:29:39.250Z,3.17
2023-05-15T21:34:32.950Z,3.38
2023-05-15T21:39:27.520Z,4.13
2023-05-15T21:44:21.485Z,4.03
2023-05-15T21:49:15.161Z,3.40
2023-05-15T21:54:07.808Z,3.50
2023-05-15T21:59:00.987Z,3.50
2023-05-15T22:03:54.670Z,3.50
2023-05-15T22:08:47.452Z,2.92
2023-05-15T22:13:41.300Z,2.80
2023-05-15T22:18:35.720Z,3.00
2023-05-15T22:23:30.233Z,2.35
2023-05-15T22:28:23.940Z,2.72
2023-05-15T22:33:17.271Z,3.13
2023-05-15T22:38:11.225Z,2.80
2023-05-15T22:43:04.008Z,2.92
2023-05-15T22:47:58.205Z,3.33
2023-05-15T22:52:51.233Z,3.35
2023-05-15T22:57:44.810Z,3.30
2023-05-15T23:02:38.945Z,3.50
2023-05-15T23:07:33.943Z,4.38
2023-05-15T23:12:26.916Z,4.90
2023-05-15T23:17:19.988Z,4.40
2023-05-15T23:22:13.793Z,6.45
2023-05-15T23:27:08.452Z,6.53
2023-05-15T23:32:01.547Z,5.50
2023-05-15T23:36:55.139Z,7.65
2023-05-15T23:41:47.368Z,6.75
2023-05-15T23:46:41.015Z,7.07
2023-05-15T23:51:34.184Z,6.32
2023-05-15T23:56:27.749Z,5.57
